sensor_id;sensor_type;location;lat;lon;timestamp;P1;durP1;ratioP1;P2;durP2;ratioP2
53931;SDS011;39844;52.496;13.482;2023-04-24T00:01:42;2.30;;;2.10;;
53931;SDS011;39844;52.496;13.482;2023-04-24T00:04:07;2.00;;;1.90;;
53931;SDS011;39844;52.496;13.482;2023-04-24T00:06:33;2.47;;;2.27;;
53931;SDS011;39844;52.496;13.482;2023-04-24T00:08:59;3.03;;;1.90;;
53931;SDS011;39844;52.496;13.482;2023-04-24T00:11:25;2.87;;;2.37;;
53931;SDS011;39844;52.496;13.482;2023-04-24T00:13:50;2.60;;;2.40;;
53931;SDS011;39844;52.496;13.482;2023-04-24T00:16:15;2.00;;;1.90;;
53931;SDS011;39844;52.496;13.482;2023-04-24T00:18:41;1.90;;;1.80;;
53931;SDS011;39844;52.496;13.482;2023-04-24T00:21:06;2.40;;;2.20;;
53931;SDS011;39844;52.496;13.482;2023-04-24T00:23:31;3.60;;;2.80;;
53931;SDS011;39844;52.496;13.482;2023-04-24T00:25:57;2.90;;;2.60;;
53931;SDS011;39844;52.496;13.482;2023-04-24T00:28:22;3.23;;;2.60;;
53931;SDS011;39844;52.496;13.482;2023-04-24T00:30:47;2.40;;;2.10;;
53931;SDS011;39844;52.496;13.482;2023-04-24T00:33:13;2.87;;;2.67;;
53931;SDS011;39844;52.496;13.482;2023-04-24T00:35:38;2.50;;;2.30;;
53931;SDS011;39844;52.496;13.482;2023-04-24T00:38:03;2.53;;;2.30;;
53931;SDS011;39844;52.496;13.482;2023-04-24T00:40:29;2.43;;;2.30;;
53931;SDS011;39844;52.496;13.482;2023-04-24T00:42:56;3.57;;;2.20;;
53931;SDS011;39844;52.496;13.482;2023-04-24T00:45:21;2.70;;;2.50;;
53931;SDS011;39844;52.496;13.482;2023-04-24T00:47:46;2.70;;;2.50;;
53931;SDS011;39844;52.496;13.482;2023-04-24T00:50:14;4.03;;;3.17;;
53931;SDS011;39844;52.496;13.482;2023-04-24T00:52:40;8.33;;;3.50;;
53931;SDS011;39844;52.496;13.482;2023-04-24T00:55:05;4.13;;;2.70;;
53931;SDS011;39844;52.496;13.482;2023-04-24T00:57:31;3.27;;;2.97;;
53931;SDS011;39844;52.496;13.482;2023-04-24T00:59:56;9.60;;;2.77;;
53931;SDS011;39844;52.496;13.482;2023-04-24T01:02:22;4.13;;;2.40;;
53931;SDS011;39844;52.496;13.482;2023-04-24T01:04:48;2.97;;;2.40;;
53931;SDS011;39844;52.496;13.482;2023-04-24T01:07:15;2.77;;;2.23;;
53931;SDS011;39844;52.496;13.482;2023-04-24T01:09:40;2.70;;;2.50;;
53931;SDS011;39844;52.496;13.482;2023-04-24T01:12:06;2.57;;;2.37;;
53931;SDS011;39844;52.496;13.482;2023-04-24T01:14:31;2.33;;;2.13;;
53931;SDS011;39844;52.496;13.482;2023-04-24T01:16:58;6.73;;;2.70;;
53931;SDS011;39844;52.496;13.482;2023-04-24T01:19:23;2.80;;;2.50;;
53931;SDS011;39844;52.496;13.482;2023-04-24T01:21:48;2.87;;;2.67;;
53931;SDS011;39844;52.496;13.482;2023-04-24T01:24:18;2.10;;;2.00;;
53931;SDS011;39844;52.496;13.482;2023-04-24T01:26:44;2.50;;;2.30;;
53931;SDS011;39844;52.496;13.482;2023-04-24T01:29:12;3.60;;;2.73;;
53931;SDS011;39844;52.496;13.482;2023-04-24T01:31:37;3.57;;;2.90;;
53931;SDS011;39844;52.496;13.482;2023-04-24T01:34:04;3.00;;;2.73;;
53931;SDS011;39844;52.496;13.482;2023-04-24T01:36:30;2.80;;;2.60;;
53931;SDS011;39844;52.496;13.482;2023-04-24T01:38:56;3.43;;;2.60;;
53931;SDS011;39844;52.496;13.482;2023-04-24T01:41:22;2.70;;;2.43;;
53931;SDS011;39844;52.496;13.482;2023-04-24T01:43:47;3.03;;;2.37;;
53931;SDS011;39844;52.496;13.482;2023-04-24T01:46:13;3.53;;;2.77;;
53931;SDS011;39844;52.496;13.482;2023-04-24T01:48:39;3.17;;;2.70;;
53931;SDS011;39844;52.496;13.482;2023-04-24T01:51:05;3.17;;;2.80;;
53931;SDS011;39844;52.496;13.482;2023-04-24T01:53:30;2.27;;;2.17;;
53931;SDS011;39844;52.496;13.482;2023-04-24T01:55:55;2.53;;;2.33;;
53931;SDS011;39844;52.496;13.482;2023-04-24T01:58:20;2.23;;;2.13;;
53931;SDS011;39844;52.496;13.482;2023-04-24T02:00:47;2.47;;;2.27;;
53931;SDS011;39844;52.496;13.482;2023-04-24T02:03:12;2.43;;;2.17;;
53931;SDS011;39844;52.496;13.482;2023-04-24T02:05:38;2.50;;;2.30;;
53931;SDS011;39844;52.496;13.482;2023-04-24T02:08:03;2.77;;;2.57;;
53931;SDS011;39844;52.496;13.482;2023-04-24T02:10:28;2.30;;;2.10;;
53931;SDS011;39844;52.496;13.482;2023-04-24T02:12:54;2.43;;;2.33;;
53931;SDS011;39844;52.496;13.482;2023-04-24T02:15:19;2.57;;;2.47;;
53931;SDS011;39844;52.496;13.482;2023-04-24T02:17:44;2.00;;;1.90;;
53931;SDS011;39844;52.496;13.482;2023-04-24T02:20:10;2.03;;;1.93;;
53931;SDS011;39844;52.496;13.482;2023-04-24T02:22:35;2.60;;;2.40;;
53931;SDS011;39844;52.496;13.482;2023-04-24T02:25:00;2.67;;;1.90;;
53931;SDS011;39844;52.496;13.482;2023-04-24T02:27:26;2.17;;;2.00;;
53931;SDS011;39844;52.496;13.482;2023-04-24T02:29:51;2.10;;;2.00;;
53931;SDS011;39844;52.496;13.482;2023-04-24T02:32:16;2.37;;;2.27;;
53931;SDS011;39844;52.496;13.482;2023-04-24T02:34:41;2.57;;;1.90;;
53931;SDS011;39844;52.496;13.482;2023-04-24T02:37:07;2.50;;;2.40;;
53931;SDS011;39844;52.496;13.482;2023-04-24T02:39:32;2.43;;;2.30;;
53931;SDS011;39844;52.496;13.482;2023-04-24T02:41:57;2.33;;;2.17;;
53931;SDS011;39844;52.496;13.482;2023-04-24T02:44:23;2.60;;;2.40;;
53931;SDS011;39844;52.496;13.482;2023-04-24T02:46:48;4.07;;;1.80;;
53931;SDS011;39844;52.496;13.482;2023-04-24T02:49:13;2.40;;;2.20;;
53931;SDS011;39844;52.496;13.482;2023-04-24T02:51:38;2.27;;;2.17;;
53931;SDS011;39844;52.496;13.482;2023-04-24T02:54:04;2.40;;;2.13;;
53931;SDS011;39844;52.496;13.482;2023-04-24T02:56:29;2.10;;;2.00;;
53931;SDS011;39844;52.496;13.482;2023-04-24T02:58:54;2.40;;;2.20;;
53931;SDS011;39844;52.496;13.482;2023-04-24T03:01:19;2.30;;;2.20;;
53931;SDS011;39844;52.496;13.482;2023-04-24T03:03:45;2.37;;;2.17;;
53931;SDS011;39844;52.496;13.482;2023-04-24T03:06:10;2.33;;;2.13;;
53931;SDS011;39844;52.496;13.482;2023-04-24T03:08:35;2.03;;;1.93;;
53931;SDS011;39844;52.496;13.482;2023-04-24T03:11:01;2.33;;;2.07;;
53931;SDS011;39844;52.496;13.482;2023-04-24T03:13:26;4.07;;;2.87;;
53931;SDS011;39844;52.496;13.482;2023-04-24T03:15:51;2.10;;;2.00;;
53931;SDS011;39844;52.496;13.482;2023-04-24T03:18:17;2.13;;;2.03;;
53931;SDS011;39844;52.496;13.482;2023-04-24T03:20:42;2.20;;;2.10;;
53931;SDS011;39844;52.496;13.482;2023-04-24T03:23:07;2.17;;;2.03;;
53931;SDS011;39844;52.496;13.482;2023-04-24T03:25:32;2.70;;;2.10;;
53931;SDS011;39844;52.496;13.482;2023-04-24T03:27:58;2.40;;;2.20;;
53931;SDS011;39844;52.496;13.482;2023-04-24T03:30:23;2.00;;;1.90;;
53931;SDS011;39844;52.496;13.482;2023-04-24T03:32:48;2.70;;;2.50;;
53931;SDS011;39844;52.496;13.482;2023-04-24T03:35:14;2.10;;;2.00;;
53931;SDS011;39844;52.496;13.482;2023-04-24T03:37:39;2.07;;;1.97;;
53931;SDS011;39844;52.496;13.482;2023-04-24T03:40:04;2.37;;;2.17;;
53931;SDS011;39844;52.496;13.482;2023-04-24T03:42:30;1.83;;;1.83;;
53931;SDS011;39844;52.496;13.482;2023-04-24T03:44:55;2.53;;;2.10;;
53931;SDS011;39844;52.496;13.482;2023-04-24T03:47:21;2.40;;;2.20;;
53931;SDS011;39844;52.496;13.482;2023-04-24T03:49:46;2.60;;;2.40;;
53931;SDS011;39844;52.496;13.482;2023-04-24T03:52:11;2.33;;;2.23;;
53931;SDS011;39844;52.496;13.482;2023-04-24T03:54:36;1.90;;;1.80;;
53931;SDS011;39844;52.496;13.482;2023-04-24T03:57:02;2.47;;;2.27;;
53931;SDS011;39844;52.496;13.482;2023-04-24T03:59:27;2.50;;;2.30;;
53931;SDS011;39844;52.496;13.482;2023-04-24T04:01:52;2.17;;;2.07;;
53931;SDS011;39844;52.496;13.482;2023-04-24T04:04:18;2.30;;;2.20;;
53931;SDS011;39844;52.496;13.482;2023-04-24T04:06:45;1.80;;;1.70;;
53931;SDS011;39844;52.496;13.482;2023-04-24T04:09:10;2.00;;;1.90;;
53931;SDS011;39844;52.496;13.482;2023-04-24T04:11:36;2.53;;;2.13;;
53931;SDS011;39844;52.496;13.482;2023-04-24T04:14:02;2.37;;;2.17;;
53931;SDS011;39844;52.496;13.482;2023-04-24T04:16:27;2.20;;;2.00;;
53931;SDS011;39844;52.496;13.482;2023-04-24T04:18:52;2.63;;;2.43;;
53931;SDS011;39844;52.496;13.482;2023-04-24T04:21:18;2.20;;;2.10;;
53931;SDS011;39844;52.496;13.482;2023-04-24T04:23:43;2.40;;;2.20;;
53931;SDS011;39844;52.496;13.482;2023-04-24T04:26:08;2.40;;;2.20;;
53931;SDS011;39844;52.496;13.482;2023-04-24T04:28:34;2.17;;;2.03;;
53931;SDS011;39844;52.496;13.482;2023-04-24T04:30:59;2.17;;;1.90;;
53931;SDS011;39844;52.496;13.482;2023-04-24T04:33:24;2.27;;;2.07;;
53931;SDS011;39844;52.496;13.482;2023-04-24T04:35:50;2.57;;;2.17;;
53931;SDS011;39844;52.496;13.482;2023-04-24T04:38:15;2.37;;;2.17;;
53931;SDS011;39844;52.496;13.482;2023-04-24T04:40:41;2.10;;;1.97;;
53931;SDS011;39844;52.496;13.482;2023-04-24T04:43:06;2.27;;;2.07;;
53931;SDS011;39844;52.496;13.482;2023-04-24T04:45:31;2.10;;;2.00;;
53931;SDS011;39844;52.496;13.482;2023-04-24T04:47:56;2.20;;;2.10;;
53931;SDS011;39844;52.496;13.482;2023-04-24T04:50:22;2.00;;;1.90;;
53931;SDS011;39844;52.496;13.482;2023-04-24T04:52:47;2.67;;;2.47;;
53931;SDS011;39844;52.496;13.482;2023-04-24T04:55:12;2.00;;;1.90;;
53931;SDS011;39844;52.496;13.482;2023-04-24T04:57:38;2.30;;;2.20;;
53931;SDS011;39844;52.496;13.482;2023-04-24T05:00:03;2.40;;;2.20;;
53931;SDS011;39844;52.496;13.482;2023-04-24T05:02:29;2.47;;;2.27;;
53931;SDS011;39844;52.496;13.482;2023-04-24T05:04:54;2.87;;;2.30;;
53931;SDS011;39844;52.496;13.482;2023-04-24T05:07:20;2.13;;;2.03;;
53931;SDS011;39844;52.496;13.482;2023-04-24T05:09:45;3.77;;;2.40;;
53931;SDS011;39844;52.496;13.482;2023-04-24T05:12:10;2.13;;;2.00;;
53931;SDS011;39844;52.496;13.482;2023-04-24T05:14:36;2.07;;;1.97;;
53931;SDS011;39844;52.496;13.482;2023-04-24T05:17:03;3.57;;;2.17;;
53931;SDS011;39844;52.496;13.482;2023-04-24T05:19:28;2.10;;;1.90;;
53931;SDS011;39844;52.496;13.482;2023-04-24T05:21:54;1.97;;;1.87;;
53931;SDS011;39844;52.496;13.482;2023-04-24T05:24:19;1.93;;;1.83;;
53931;SDS011;39844;52.496;13.482;2023-04-24T05:26:44;2.23;;;2.13;;
53931;SDS011;39844;52.496;13.482;2023-04-24T05:29:10;2.33;;;2.23;;
53931;SDS011;39844;52.496;13.482;2023-04-24T05:31:35;2.57;;;2.37;;
53931;SDS011;39844;52.496;13.482;2023-04-24T05:34:00;2.13;;;2.03;;
53931;SDS011;39844;52.496;13.482;2023-04-24T05:36:26;1.97;;;1.87;;
53931;SDS011;39844;52.496;13.482;2023-04-24T05:38:51;1.50;;;1.50;;
53931;SDS011;39844;52.496;13.482;2023-04-24T05:41:16;2.10;;;1.90;;
53931;SDS011;39844;52.496;13.482;2023-04-24T05:43:42;2.10;;;2.00;;
53931;SDS011;39844;52.496;13.482;2023-04-24T05:46:07;6.33;;;1.97;;
53931;SDS011;39844;52.496;13.482;2023-04-24T05:48:32;2.13;;;2.03;;
53931;SDS011;39844;52.496;13.482;2023-04-24T05:50:57;2.33;;;1.93;;
53931;SDS011;39844;52.496;13.482;2023-04-24T05:53:23;1.80;;;1.70;;
53931;SDS011;39844;52.496;13.482;2023-04-24T05:55:48;1.77;;;1.67;;
53931;SDS011;39844;52.496;13.482;2023-04-24T05:58:13;1.90;;;1.80;;
53931;SDS011;39844;52.496;13.482;2023-04-24T06:00:39;1.70;;;1.60;;
53931;SDS011;39844;52.496;13.482;2023-04-24T06:03:04;2.10;;;1.90;;
53931;SDS011;39844;52.496;13.482;2023-04-24T06:05:30;2.53;;;1.60;;
53931;SDS011;39844;52.496;13.482;2023-04-24T06:07:55;1.60;;;1.50;;
53931;SDS011;39844;52.496;13.482;2023-04-24T06:10:21;1.43;;;1.33;;
53931;SDS011;39844;52.496;13.482;2023-04-24T06:12:46;1.47;;;1.33;;
53931;SDS011;39844;52.496;13.482;2023-04-24T06:15:11;1.60;;;1.50;;
53931;SDS011;39844;52.496;13.482;2023-04-24T06:17:37;1.73;;;1.50;;
53931;SDS011;39844;52.496;13.482;2023-04-24T06:20:02;1.47;;;1.37;;
53931;SDS011;39844;52.496;13.482;2023-04-24T06:22:27;2.87;;;1.20;;
53931;SDS011;39844;52.496;13.482;2023-04-24T06:24:53;2.00;;;1.40;;
53931;SDS011;39844;52.496;13.482;2023-04-24T06:27:18;1.20;;;1.20;;
53931;SDS011;39844;52.496;13.482;2023-04-24T06:29:43;1.47;;;1.40;;
53931;SDS011;39844;52.496;13.482;2023-04-24T06:32:09;1.30;;;1.30;;
53931;SDS011;39844;52.496;13.482;2023-04-24T06:34:34;3.03;;;1.20;;
53931;SDS011;39844;52.496;13.482;2023-04-24T06:36:59;2.70;;;1.40;;
53931;SDS011;39844;52.496;13.482;2023-04-24T06:39:25;1.83;;;1.17;;
53931;SDS011;39844;52.496;13.482;2023-04-24T06:41:50;1.57;;;1.30;;
53931;SDS011;39844;52.496;13.482;2023-04-24T06:44:16;1.17;;;1.07;;
53931;SDS011;39844;52.496;13.482;2023-04-24T06:46:41;1.30;;;1.30;;
53931;SDS011;39844;52.496;13.482;2023-04-24T06:49:06;1.87;;;1.20;;
53931;SDS011;39844;52.496;13.482;2023-04-24T06:51:32;1.37;;;1.30;;
53931;SDS011;39844;52.496;13.482;2023-04-24T06:53:57;1.30;;;1.20;;
53931;SDS011;39844;52.496;13.482;2023-04-24T06:56:22;1.20;;;1.20;;
53931;SDS011;39844;52.496;13.482;2023-04-24T06:58:48;1.03;;;1.00;;
53931;SDS011;39844;52.496;13.482;2023-04-24T07:01:13;1.10;;;1.10;;
53931;SDS011;39844;52.496;13.482;2023-04-24T07:03:38;1.33;;;1.27;;
53931;SDS011;39844;52.496;13.482;2023-04-24T07:06:04;1.20;;;1.20;;
53931;SDS011;39844;52.496;13.482;2023-04-24T07:08:30;3.07;;;1.20;;
53931;SDS011;39844;52.496;13.482;2023-04-24T07:10:56;1.10;;;1.10;;
53931;SDS011;39844;52.496;13.482;2023-04-24T07:13:22;1.20;;;1.00;;
53931;SDS011;39844;52.496;13.482;2023-04-24T07:15:47;0.70;;;0.70;;
53931;SDS011;39844;52.496;13.482;2023-04-24T07:18:13;0.90;;;0.90;;
53931;SDS011;39844;52.496;13.482;2023-04-24T07:20:38;0.90;;;0.90;;
53931;SDS011;39844;52.496;13.482;2023-04-24T07:23:03;1.30;;;1.17;;
53931;SDS011;39844;52.496;13.482;2023-04-24T07:25:28;1.10;;;1.10;;
53931;SDS011;39844;52.496;13.482;2023-04-24T07:27:54;1.13;;;1.00;;
53931;SDS011;39844;52.496;13.482;2023-04-24T07:30:19;2.07;;;1.23;;
53931;SDS011;39844;52.496;13.482;2023-04-24T07:32:47;0.90;;;0.90;;
53931;SDS011;39844;52.496;13.482;2023-04-24T07:35:12;0.70;;;0.70;;
53931;SDS011;39844;52.496;13.482;2023-04-24T07:37:37;0.90;;;0.90;;
53931;SDS011;39844;52.496;13.482;2023-04-24T07:40:03;0.90;;;0.90;;
53931;SDS011;39844;52.496;13.482;2023-04-24T07:42:28;0.90;;;0.90;;
53931;SDS011;39844;52.496;13.482;2023-04-24T07:44:54;0.90;;;0.90;;
53931;SDS011;39844;52.496;13.482;2023-04-24T07:47:19;0.70;;;0.70;;
53931;SDS011;39844;52.496;13.482;2023-04-24T07:49:45;2.83;;;0.70;;
53931;SDS011;39844;52.496;13.482;2023-04-24T07:52:10;0.60;;;0.60;;
53931;SDS011;39844;52.496;13.482;2023-04-24T07:54:35;0.80;;;0.80;;
53931;SDS011;39844;52.496;13.482;2023-04-24T07:57:01;0.80;;;0.63;;
53931;SDS011;39844;52.496;13.482;2023-04-24T07:59:26;0.60;;;0.60;;
53931;SDS011;39844;52.496;13.482;2023-04-24T08:01:51;0.80;;;0.80;;
53931;SDS011;39844;52.496;13.482;2023-04-24T08:04:16;0.57;;;0.57;;
53931;SDS011;39844;52.496;13.482;2023-04-24T08:06:42;1.03;;;0.83;;
53931;SDS011;39844;52.496;13.482;2023-04-24T08:09:09;1.20;;;0.60;;
53931;SDS011;39844;52.496;13.482;2023-04-24T08:11:34;0.97;;;0.80;;
53931;SDS011;39844;52.496;13.482;2023-04-24T08:14:00;0.70;;;0.70;;
53931;SDS011;39844;52.496;13.482;2023-04-24T08:16:25;0.70;;;0.70;;
53931;SDS011;39844;52.496;13.482;2023-04-24T08:18:51;1.40;;;0.70;;
53931;SDS011;39844;52.496;13.482;2023-04-24T08:21:16;0.80;;;0.80;;
53931;SDS011;39844;52.496;13.482;2023-04-24T08:23:42;0.70;;;0.70;;
53931;SDS011;39844;52.496;13.482;2023-04-24T08:26:08;0.87;;;0.87;;
53931;SDS011;39844;52.496;13.482;2023-04-24T08:28:33;0.83;;;0.83;;
53931;SDS011;39844;52.496;13.482;2023-04-24T08:30:58;0.80;;;0.80;;
53931;SDS011;39844;52.496;13.482;2023-04-24T08:33:23;0.60;;;0.60;;
53931;SDS011;39844;52.496;13.482;2023-04-24T08:35:49;0.70;;;0.70;;
53931;SDS011;39844;52.496;13.482;2023-04-24T08:38:15;0.70;;;0.70;;
53931;SDS011;39844;52.496;13.482;2023-04-24T08:40:40;0.80;;;0.73;;
53931;SDS011;39844;52.496;13.482;2023-04-24T08:43:06;1.50;;;0.70;;
53931;SDS011;39844;52.496;13.482;2023-04-24T08:45:32;2.17;;;0.70;;
53931;SDS011;39844;52.496;13.482;2023-04-24T08:47:57;1.60;;;0.90;;
53931;SDS011;39844;52.496;13.482;2023-04-24T08:50:24;0.80;;;0.80;;
53931;SDS011;39844;52.496;13.482;2023-04-24T08:52:50;0.87;;;0.80;;
53931;SDS011;39844;52.496;13.482;2023-04-24T08:55:16;0.70;;;0.70;;
53931;SDS011;39844;52.496;13.482;2023-04-24T08:57:41;1.20;;;0.80;;
53931;SDS011;39844;52.496;13.482;2023-04-24T09:00:08;0.50;;;0.50;;
53931;SDS011;39844;52.496;13.482;2023-04-24T09:02:33;0.50;;;0.50;;
53931;SDS011;39844;52.496;13.482;2023-04-24T09:04:59;0.50;;;0.50;;
53931;SDS011;39844;52.496;13.482;2023-04-24T09:07:25;2.07;;;0.67;;
53931;SDS011;39844;52.496;13.482;2023-04-24T09:09:52;0.50;;;0.50;;
53931;SDS011;39844;52.496;13.482;2023-04-24T09:12:18;0.73;;;0.53;;
53931;SDS011;39844;52.496;13.482;2023-04-24T09:14:44;3.00;;;0.83;;
53931;SDS011;39844;52.496;13.482;2023-04-24T09:17:10;0.67;;;0.60;;
53931;SDS011;39844;52.496;13.482;2023-04-24T09:19:36;0.60;;;0.60;;
53931;SDS011;39844;52.496;13.482;2023-04-24T09:22:04;0.60;;;0.60;;
53931;SDS011;39844;52.496;13.482;2023-04-24T09:24:30;0.50;;;0.50;;
53931;SDS011;39844;52.496;13.482;2023-04-24T09:26:56;2.00;;;0.70;;
53931;SDS011;39844;52.496;13.482;2023-04-24T09:29:23;0.90;;;0.90;;
53931;SDS011;39844;52.496;13.482;2023-04-24T09:31:48;0.60;;;0.60;;
53931;SDS011;39844;52.496;13.482;2023-04-24T09:34:13;0.50;;;0.50;;
53931;SDS011;39844;52.496;13.482;2023-04-24T09:36:39;3.17;;;0.70;;
53931;SDS011;39844;52.496;13.482;2023-04-24T09:39:16;0.80;;;0.80;;
53931;SDS011;39844;52.496;13.482;2023-04-24T09:41:54;0.60;;;0.60;;
53931;SDS011;39844;52.496;13.482;2023-04-24T09:44:21;0.83;;;0.83;;
53931;SDS011;39844;52.496;13.482;2023-04-24T09:46:49;0.70;;;0.70;;
53931;SDS011;39844;52.496;13.482;2023-04-24T09:49:22;0.70;;;0.70;;
53931;SDS011;39844;52.496;13.482;2023-04-24T09:51:49;0.83;;;0.83;;
53931;SDS011;39844;52.496;13.482;2023-04-24T09:54:15;0.73;;;0.73;;
53931;SDS011;39844;52.496;13.482;2023-04-24T09:56:45;0.70;;;0.70;;
53931;SDS011;39844;52.496;13.482;2023-04-24T09:59:12;0.80;;;0.80;;
53931;SDS011;39844;52.496;13.482;2023-04-24T10:01:41;0.90;;;0.70;;
53931;SDS011;39844;52.496;13.482;2023-04-24T10:04:08;0.77;;;0.77;;
53931;SDS011;39844;52.496;13.482;2023-04-24T10:06:42;1.50;;;0.73;;
53931;SDS011;39844;52.496;13.482;2023-04-24T10:09:08;0.73;;;0.70;;
53931;SDS011;39844;52.496;13.482;2023-04-24T10:11:33;2.30;;;0.70;;
53931;SDS011;39844;52.496;13.482;2023-04-24T10:13:59;0.60;;;0.60;;
53931;SDS011;39844;52.496;13.482;2023-04-24T10:16:24;0.73;;;0.70;;
53931;SDS011;39844;52.496;13.482;2023-04-24T10:18:50;2.10;;;0.87;;
53931;SDS011;39844;52.496;13.482;2023-04-24T10:21:16;0.80;;;0.80;;
53931;SDS011;39844;52.496;13.482;2023-04-24T10:23:42;0.60;;;0.60;;
53931;SDS011;39844;52.496;13.482;2023-04-24T10:26:12;0.60;;;0.60;;
53931;SDS011;39844;52.496;13.482;2023-04-24T10:28:38;0.50;;;0.50;;
53931;SDS011;39844;52.496;13.482;2023-04-24T10:31:04;0.60;;;0.60;;
53931;SDS011;39844;52.496;13.482;2023-04-24T10:33:29;0.60;;;0.60;;
53931;SDS011;39844;52.496;13.482;2023-04-24T10:35:55;0.73;;;0.73;;
53931;SDS011;39844;52.496;13.482;2023-04-24T10:38:22;1.40;;;0.70;;
53931;SDS011;39844;52.496;13.482;2023-04-24T10:40:50;0.63;;;0.63;;
53931;SDS011;39844;52.496;13.482;2023-04-24T10:43:16;0.60;;;0.60;;
53931;SDS011;39844;52.496;13.482;2023-04-24T10:45:59;0.53;;;0.53;;
53931;SDS011;39844;52.496;13.482;2023-04-24T10:48:28;0.50;;;0.50;;
53931;SDS011;39844;52.496;13.482;2023-04-24T10:50:54;2.80;;;0.80;;
53931;SDS011;39844;52.496;13.482;2023-04-24T10:53:23;0.93;;;0.53;;
53931;SDS011;39844;52.496;13.482;2023-04-24T10:55:52;0.53;;;0.53;;
53931;SDS011;39844;52.496;13.482;2023-04-24T10:58:39;0.50;;;0.50;;
53931;SDS011;39844;52.496;13.482;2023-04-24T11:01:06;0.57;;;0.57;;
53931;SDS011;39844;52.496;13.482;2023-04-24T11:03:32;0.53;;;0.53;;
53931;SDS011;39844;52.496;13.482;2023-04-24T11:05:59;2.67;;;0.57;;
53931;SDS011;39844;52.496;13.482;2023-04-24T11:09:01;1.70;;;0.60;;
53931;SDS011;39844;52.496;13.482;2023-04-24T11:11:23;0.70;;;0.70;;
53931;SDS011;39844;52.496;13.482;2023-04-24T11:18:52;0.70;;;0.70;;
53931;SDS011;39844;52.496;13.482;2023-04-24T11:21:25;0.90;;;0.90;;
53931;SDS011;39844;52.496;13.482;2023-04-24T11:23:55;1.80;;;1.00;;
53931;SDS011;39844;52.496;13.482;2023-04-24T11:26:21;0.90;;;0.90;;
53931;SDS011;39844;52.496;13.482;2023-04-24T11:28:47;1.50;;;0.80;;
53931;SDS011;39844;52.496;13.482;2023-04-24T11:34:10;0.70;;;0.70;;
53931;SDS011;39844;52.496;13.482;2023-04-24T11:36:37;0.80;;;0.80;;
53931;SDS011;39844;52.496;13.482;2023-04-24T11:39:02;3.43;;;1.00;;
53931;SDS011;39844;52.496;13.482;2023-04-24T11:41:28;0.60;;;0.60;;
53931;SDS011;39844;52.496;13.482;2023-04-24T11:43:53;0.80;;;0.80;;
53931;SDS011;39844;52.496;13.482;2023-04-24T11:46:20;0.80;;;0.80;;
53931;SDS011;39844;52.496;13.482;2023-04-24T11:48:46;0.80;;;0.80;;
53931;SDS011;39844;52.496;13.482;2023-04-24T11:51:14;2.47;;;1.10;;
53931;SDS011;39844;52.496;13.482;2023-04-24T11:53:39;0.80;;;0.80;;
53931;SDS011;39844;52.496;13.482;2023-04-24T11:56:05;0.80;;;0.80;;
53931;SDS011;39844;52.496;13.482;2023-04-24T11:58:37;1.00;;;1.00;;
53931;SDS011;39844;52.496;13.482;2023-04-24T12:01:03;1.10;;;1.00;;
53931;SDS011;39844;52.496;13.482;2023-04-24T12:03:29;1.00;;;1.00;;
53931;SDS011;39844;52.496;13.482;2023-04-24T12:06:07;1.00;;;1.00;;
53931;SDS011;39844;52.496;13.482;2023-04-24T12:08:34;1.63;;;1.00;;
53931;SDS011;39844;52.496;13.482;2023-04-24T12:11:02;0.70;;;0.70;;
53931;SDS011;39844;52.496;13.482;2023-04-24T12:13:29;1.03;;;0.73;;
53931;SDS011;39844;52.496;13.482;2023-04-24T12:15:54;1.40;;;0.80;;
53931;SDS011;39844;52.496;13.482;2023-04-24T12:18:24;0.70;;;0.70;;
53931;SDS011;39844;52.496;13.482;2023-04-24T12:20:49;0.70;;;0.70;;
53931;SDS011;39844;52.496;13.482;2023-04-24T12:23:14;0.77;;;0.75;;
53931;SDS011;39844;52.496;13.482;2023-04-24T12:25:40;1.00;;;1.00;;
53931;SDS011;39844;52.496;13.482;2023-04-24T12:30:31;0.60;;;0.60;;
53931;SDS011;39844;52.496;13.482;2023-04-24T12:32:58;1.10;;;1.10;;
53931;SDS011;39844;52.496;13.482;2023-04-24T12:35:25;0.70;;;0.70;;
53931;SDS011;39844;52.496;13.482;2023-04-24T12:37:53;0.77;;;0.70;;
53931;SDS011;39844;52.496;13.482;2023-04-24T12:40:19;0.80;;;0.80;;
53931;SDS011;39844;52.496;13.482;2023-04-24T12:42:46;0.77;;;0.77;;
53931;SDS011;39844;52.496;13.482;2023-04-24T12:45:12;0.85;;;0.85;;
53931;SDS011;39844;52.496;13.482;2023-04-24T12:47:38;0.68;;;0.68;;
53931;SDS011;39844;52.496;13.482;2023-04-24T12:50:05;0.70;;;0.70;;
53931;SDS011;39844;52.496;13.482;2023-04-24T12:52:31;2.17;;;0.82;;
53931;SDS011;39844;52.496;13.482;2023-04-24T12:54:57;0.90;;;0.90;;
53931;SDS011;39844;52.496;13.482;2023-04-24T12:57:24;0.60;;;0.60;;
53931;SDS011;39844;52.496;13.482;2023-04-24T12:59:52;0.60;;;0.60;;
53931;SDS011;39844;52.496;13.482;2023-04-24T13:02:19;0.40;;;0.40;;
53931;SDS011;39844;52.496;13.482;2023-04-24T13:04:44;0.80;;;0.80;;
53931;SDS011;39844;52.496;13.482;2023-04-24T13:07:11;0.67;;;0.50;;
53931;SDS011;39844;52.496;13.482;2023-04-24T13:09:36;0.82;;;0.82;;
53931;SDS011;39844;52.496;13.482;2023-04-24T13:12:02;0.60;;;0.60;;
53931;SDS011;39844;52.496;13.482;2023-04-24T13:14:27;0.55;;;0.55;;
53931;SDS011;39844;52.496;13.482;2023-04-24T13:16:52;0.70;;;0.70;;
53931;SDS011;39844;52.496;13.482;2023-04-24T13:19:18;0.70;;;0.70;;
53931;SDS011;39844;52.496;13.482;2023-04-24T13:21:43;0.95;;;0.60;;
53931;SDS011;39844;52.496;13.482;2023-04-24T13:24:08;2.17;;;0.85;;
53931;SDS011;39844;52.496;13.482;2023-04-24T13:26:34;0.95;;;0.95;;
53931;SDS011;39844;52.496;13.482;2023-04-24T13:29:00;0.50;;;0.50;;
53931;SDS011;39844;52.496;13.482;2023-04-24T13:31:25;0.50;;;0.50;;
53931;SDS011;39844;52.496;13.482;2023-04-24T13:33:50;0.73;;;0.73;;
53931;SDS011;39844;52.496;13.482;2023-04-24T13:36:15;0.60;;;0.60;;
53931;SDS011;39844;52.496;13.482;2023-04-24T13:38:41;0.60;;;0.60;;
53931;SDS011;39844;52.496;13.482;2023-04-24T13:41:06;0.55;;;0.50;;
53931;SDS011;39844;52.496;13.482;2023-04-24T13:43:31;0.70;;;0.70;;
53931;SDS011;39844;52.496;13.482;2023-04-24T13:45:57;0.70;;;0.70;;
53931;SDS011;39844;52.496;13.482;2023-04-24T13:48:22;0.50;;;0.50;;
53931;SDS011;39844;52.496;13.482;2023-04-24T13:50:47;0.50;;;0.50;;
53931;SDS011;39844;52.496;13.482;2023-04-24T13:53:12;0.60;;;0.60;;
53931;SDS011;39844;52.496;13.482;2023-04-24T13:55:38;1.48;;;0.40;;
53931;SDS011;39844;52.496;13.482;2023-04-24T13:58:03;0.50;;;0.50;;
53931;SDS011;39844;52.496;13.482;2023-04-24T14:00:28;0.50;;;0.50;;
53931;SDS011;39844;52.496;13.482;2023-04-24T14:02:54;0.60;;;0.60;;
53931;SDS011;39844;52.496;13.482;2023-04-24T14:05:19;4.00;;;2.95;;
53931;SDS011;39844;52.496;13.482;2023-04-24T14:07:44;1.30;;;1.20;;
53931;SDS011;39844;52.496;13.482;2023-04-24T14:10:12;1.00;;;1.00;;
53931;SDS011;39844;52.496;13.482;2023-04-24T14:12:37;0.70;;;0.70;;
53931;SDS011;39844;52.496;13.482;2023-04-24T14:15:03;0.60;;;0.60;;
53931;SDS011;39844;52.496;13.482;2023-04-24T14:17:29;0.70;;;0.70;;
53931;SDS011;39844;52.496;13.482;2023-04-24T14:19:54;0.98;;;0.98;;
53931;SDS011;39844;52.496;13.482;2023-04-24T14:22:19;0.70;;;0.70;;
53931;SDS011;39844;52.496;13.482;2023-04-24T14:24:44;0.70;;;0.70;;
53931;SDS011;39844;52.496;13.482;2023-04-24T14:27:10;0.57;;;0.57;;
53931;SDS011;39844;52.496;13.482;2023-04-24T14:29:35;0.55;;;0.52;;
53931;SDS011;39844;52.496;13.482;2023-04-24T14:32:00;2.83;;;0.73;;
53931;SDS011;39844;52.496;13.482;2023-04-24T14:34:25;0.80;;;0.80;;
53931;SDS011;39844;52.496;13.482;2023-04-24T14:36:52;0.70;;;0.70;;